createdAt,value
2019-03-27T00:01:56.491Z,11.38
2019-03-27T00:04:45.945Z,11.28
2019-03-27T00:07:35.147Z,12.35
2019-03-27T00:10:25.122Z,9.93
2019-03-27T00:13:14.923Z,12.20
2019-03-27T00:16:04.442Z,11.63
2019-03-27T00:18:53.293Z,12.35
2019-03-27T00:21:42.729Z,14.58
2019-03-27T00:24:32.230Z,11.57
2019-03-27T00:27:21.363Z,15.78
2019-03-27T00:30:11.306Z,16.15
2019-03-27T00:33:00.475Z,16.45
2019-03-27T00:35:49.527Z,16.20
2019-03-27T00:38:38.519Z,16.40
2019-03-27T00:41:28.219Z,14.87
2019-03-27T00:44:17.651Z,17.70
2019-03-27T00:47:07.111Z,17.85
2019-03-27T00:49:56.413Z,13.10
2019-03-27T00:52:45.295Z,15.30
2019-03-27T00:55:34.176Z,15.98
2019-03-27T00:58:23.275Z,14.15
2019-03-27T01:01:14.405Z,17.23
2019-03-27T01:04:04.066Z,17.35
2019-03-27T01:06:53.781Z,18.07
2019-03-27T01:09:42.519Z,16.80
2019-03-27T01:12:31.774Z,14.70
2019-03-27T01:15:21.172Z,16.27
2019-03-27T01:18:11.120Z,15.43
2019-03-27T01:21:00.265Z,21.35
2019-03-27T01:23:50.111Z,21.33
2019-03-27T01:26:39.616Z,16.35
2019-03-27T01:29:29.255Z,19.70
2019-03-27T01:32:18.554Z,18.00
2019-03-27T01:35:08.499Z,13.25
2019-03-27T01:37:57.608Z,18.20
2019-03-27T01:40:46.516Z,16.05
2019-03-27T01:43:36.274Z,18.80
2019-03-27T01:46:25.118Z,15.38
2019-03-27T01:49:14.413Z,19.45
2019-03-27T01:52:04.056Z,21.15
2019-03-27T01:54:53.771Z,18.05
2019-03-27T01:57:43.313Z,16.55
2019-03-27T02:00:33.147Z,21.50
2019-03-27T02:03:22.730Z,16.77
2019-03-27T02:06:12.074Z,17.17
2019-03-27T02:09:01.521Z,17.30
2019-03-27T02:11:51.872Z,19.35
2019-03-27T02:14:40.860Z,20.35
2019-03-27T02:17:30.511Z,19.50
2019-03-27T02:20:20.083Z,20.75
2019-03-27T02:23:09.333Z,20.87
2019-03-27T02:25:58.719Z,20.68
2019-03-27T02:28:47.975Z,24.27
2019-03-27T02:31:37.787Z,23.18
2019-03-27T02:34:27.547Z,20.50
2019-03-27T02:37:16.677Z,17.32
2019-03-27T02:40:07.510Z,20.95
2019-03-27T02:42:56.764Z,19.65
2019-03-27T02:45:46.055Z,16.30
2019-03-27T02:48:35.287Z,19.05
2019-03-27T02:51:24.441Z,20.72
2019-03-27T02:54:14.140Z,23.50
2019-03-27T02:57:03.647Z,15.83
2019-03-27T02:59:53.231Z,19.50
2019-03-27T03:02:42.847Z,18.85
2019-03-27T03:05:32.471Z,19.62
2019-03-27T03:08:21.651Z,26.48
2019-03-27T03:11:10.502Z,23.92
2019-03-27T03:13:59.750Z,22.50
2019-03-27T03:16:49.526Z,18.12
2019-03-27T03:19:38.689Z,20.10
2019-03-27T03:22:27.833Z,23.02
2019-03-27T03:25:16.931Z,19.92
2019-03-27T03:28:06.294Z,24.55
2019-03-27T03:30:56.128Z,24.50
2019-03-27T03:33:45.266Z,24.40
2019-03-27T03:36:34.370Z,26.35
2019-03-27T03:39:23.967Z,20.03
2019-03-27T03:42:13.770Z,20.27
2019-03-27T03:45:02.937Z,23.00
2019-03-27T03:47:52.824Z,19.27
2019-03-27T03:50:44.283Z,29.37
2019-03-27T03:53:35.043Z,24.93
2019-03-27T03:56:25.188Z,31.02
2019-03-27T03:59:15.307Z,28.17
2019-03-27T04:02:05.370Z,23.00
2019-03-27T04:04:56.700Z,24.77
2019-03-27T04:07:46.260Z,26.97
2019-03-27T04:10:35.290Z,24.45
2019-03-27T04:13:24.832Z,26.20
2019-03-27T04:16:14.400Z,24.45
2019-03-27T04:19:04.149Z,31.57
2019-03-27T04:21:53.885Z,20.85
2019-03-27T04:24:43.242Z,23.70
2019-03-27T04:27:31.906Z,36.95
2019-03-27T04:30:21.650Z,35.73
2019-03-27T04:33:10.490Z,23.25
2019-03-27T04:36:00.053Z,32.15
2019-03-27T04:38:49.094Z,22.43
2019-03-27T04:41:38.135Z,25.20
2019-03-27T04:44:27.840Z,26.15
2019-03-27T04:47:31.159Z,24.60
2019-03-27T04:50:07.859Z,27.15
2019-03-27T04:52:57.373Z,27.83
2019-03-27T04:55:46.959Z,28.83
2019-03-27T04:58:36.297Z,31.85
2019-03-27T05:01:25.533Z,29.02
2019-03-27T05:04:14.955Z,27.77
2019-03-27T05:07:04.317Z,28.00
2019-03-27T05:09:53.904Z,29.10
2019-03-27T05:12:43.500Z,29.52
2019-03-27T05:15:33.175Z,26.93
2019-03-27T05:18:22.342Z,27.55
2019-03-27T05:21:11.535Z,30.52
2019-03-27T05:24:00.230Z,28.60
2019-03-27T05:26:49.648Z,33.75
2019-03-27T05:29:39.120Z,32.08
2019-03-27T05:32:27.883Z,33.73
2019-03-27T05:35:17.425Z,32.90
2019-03-27T05:38:07.293Z,28.90
2019-03-27T05:40:56.821Z,27.87
2019-03-27T05:43:46.498Z,30.80
2019-03-27T05:46:35.816Z,28.73
2019-03-27T05:49:25.673Z,30.97
2019-03-27T05:52:15.137Z,31.75
2019-03-27T05:55:04.643Z,29.75
2019-03-27T05:57:53.709Z,32.13
2019-03-27T06:00:43.178Z,31.12
2019-03-27T06:03:32.762Z,28.80
2019-03-27T06:06:22.348Z,31.60
2019-03-27T06:09:11.873Z,30.40
2019-03-27T06:12:01.539Z,37.38
2019-03-27T06:14:50.589Z,35.17
2019-03-27T06:17:40.534Z,28.87
2019-03-27T06:20:29.330Z,37.53
2019-03-27T06:23:18.994Z,32.70
2019-03-27T06:26:08.711Z,31.30
2019-03-27T06:28:58.358Z,32.03
2019-03-27T06:31:47.815Z,32.05
2019-03-27T06:34:37.398Z,28.30
2019-03-27T06:37:26.791Z,36.08
2019-03-27T06:40:16.248Z,30.05
2019-03-27T06:43:05.233Z,27.75
2019-03-27T06:45:54.321Z,28.80
2019-03-27T06:48:43.583Z,27.77
2019-03-27T06:51:39.829Z,31.35
2019-03-27T06:54:23.290Z,31.57
2019-03-27T06:57:13.021Z,34.10
2019-03-27T07:00:02.267Z,34.80
2019-03-27T07:02:52.103Z,28.10
2019-03-27T07:05:40.974Z,34.03
2019-03-27T07:08:30.174Z,31.10
2019-03-27T07:11:19.983Z,38.92
2019-03-27T07:14:09.385Z,28.90
2019-03-27T07:16:58.659Z,32.58
2019-03-27T07:19:48.114Z,31.97
2019-03-27T07:22:37.653Z,30.65
2019-03-27T07:25:27.100Z,31.35
2019-03-27T07:28:16.497Z,34.27
2019-03-27T07:31:05.493Z,31.60
2019-03-27T07:33:55.062Z,34.80
2019-03-27T07:36:44.395Z,32.08
2019-03-27T07:39:33.902Z,27.33
2019-03-27T07:42:23.566Z,31.93
2019-03-27T07:45:12.525Z,33.28
2019-03-27T07:48:02.292Z,37.85
2019-03-27T07:50:51.641Z,30.20
2019-03-27T07:53:41.279Z,34.90
2019-03-27T07:56:30.814Z,36.65
2019-03-27T07:59:21.039Z,31.68
2019-03-27T08:02:10.494Z,31.87
2019-03-27T08:04:59.423Z,34.13
2019-03-27T08:07:48.389Z,31.77
2019-03-27T08:10:38.003Z,35.95
2019-03-27T08:13:27.331Z,35.88
2019-03-27T08:16:17.252Z,35.63
2019-03-27T08:19:08.014Z,31.12
2019-03-27T08:21:57.527Z,35.23
2019-03-27T08:24:46.985Z,37.15
2019-03-27T08:27:36.651Z,31.17
2019-03-27T08:30:27.224Z,32.95
2019-03-27T08:33:16.602Z,35.03
2019-03-27T08:36:06.576Z,32.33
2019-03-27T08:38:56.495Z,29.37
2019-03-27T08:41:46.075Z,32.15
2019-03-27T08:44:34.747Z,32.65
2019-03-27T08:47:24.119Z,28.70
2019-03-27T08:50:13.372Z,39.18
2019-03-27T08:53:02.975Z,28.73
2019-03-27T08:55:51.932Z,29.90
2019-03-27T08:58:41.189Z,33.50
2019-03-27T09:01:30.557Z,30.23
2019-03-27T09:04:20.275Z,35.98
2019-03-27T09:07:09.718Z,39.18
2019-03-27T09:09:59.400Z,29.25
2019-03-27T09:12:49.176Z,31.73
2019-03-27T09:15:38.829Z,36.10
2019-03-27T09:18:27.673Z,31.33
2019-03-27T09:21:17.245Z,34.38
2019-03-27T09:24:06.707Z,27.70
2019-03-27T09:26:56.234Z,37.63
2019-03-27T09:29:45.889Z,32.90
2019-03-27T09:32:35.275Z,29.37
2019-03-27T09:35:24.443Z,33.80
2019-03-27T09:38:13.701Z,31.55
2019-03-27T09:41:03.801Z,31.93
2019-03-27T09:43:52.897Z,27.75
2019-03-27T09:46:42.305Z,23.85
2019-03-27T09:49:31.906Z,28.15
2019-03-27T09:52:21.649Z,27.73
2019-03-27T09:55:11.252Z,26.73
2019-03-27T09:58:00.448Z,26.70
2019-03-27T10:01:00.419Z,25.95
2019-03-27T10:03:49.887Z,26.12
2019-03-27T10:06:39.262Z,23.47
2019-03-27T10:09:28.636Z,21.93
2019-03-27T10:12:18.436Z,27.32
2019-03-27T10:15:09.094Z,25.40
2019-03-27T10:17:58.486Z,26.00
2019-03-27T10:20:48.015Z,24.32
2019-03-27T10:23:37.684Z,27.62
2019-03-27T10:26:26.809Z,25.70
2019-03-27T10:29:16.533Z,28.38
2019-03-27T10:32:05.482Z,31.25
2019-03-27T10:34:54.714Z,26.20
2019-03-27T10:37:44.208Z,25.47
2019-03-27T10:40:33.726Z,21.15
2019-03-27T10:43:22.629Z,24.05
2019-03-27T10:46:12.075Z,23.98
2019-03-27T10:49:01.094Z,23.62
2019-03-27T10:51:50.017Z,25.27
2019-03-27T10:54:39.061Z,25.57
2019-03-27T10:57:28.639Z,21.70
2019-03-27T11:00:17.936Z,21.60
2019-03-27T11:03:06.659Z,24.80
2019-03-27T11:05:55.901Z,26.45
2019-03-27T11:08:44.691Z,21.45
2019-03-27T11:11:34.678Z,23.35
2019-03-27T11:14:36.850Z,26.70
2019-03-27T11:17:15.399Z,23.60
2019-03-27T11:20:05.061Z,25.00
2019-03-27T11:22:54.464Z,19.87
2019-03-27T11:25:43.969Z,17.57
2019-03-27T11:28:33.643Z,20.17
2019-03-27T11:31:23.340Z,20.57
2019-03-27T11:34:12.758Z,19.73
2019-03-27T11:37:02.357Z,23.40
2019-03-27T11:39:51.950Z,19.35
2019-03-27T11:42:41.102Z,20.90
2019-03-27T11:45:30.469Z,20.32
2019-03-27T11:48:19.943Z,18.48
2019-03-27T11:51:08.965Z,18.30
2019-03-27T11:53:58.551Z,17.82
2019-03-27T11:56:47.902Z,18.12
2019-03-27T11:59:36.947Z,16.17
2019-03-27T12:02:26.208Z,15.68
2019-03-27T12:05:16.346Z,17.95
2019-03-27T12:08:06.244Z,16.40
2019-03-27T12:10:55.578Z,15.80
2019-03-27T12:13:45.567Z,12.68
2019-03-27T12:16:35.274Z,16.62
2019-03-27T12:19:24.550Z,17.57
2019-03-27T12:22:13.999Z,17.67
2019-03-27T12:25:03.918Z,14.53
2019-03-27T12:27:52.894Z,16.90
2019-03-27T12:30:41.635Z,16.82
2019-03-27T12:33:31.221Z,14.58
2019-03-27T12:36:20.678Z,16.70
2019-03-27T12:39:10.559Z,19.70
2019-03-27T12:42:00.335Z,17.57
2019-03-27T12:44:49.778Z,14.70
2019-03-27T12:47:39.314Z,15.98
2019-03-27T12:50:28.289Z,17.85
2019-03-27T12:53:18.489Z,13.53
2019-03-27T12:56:08.022Z,14.83
2019-03-27T12:58:57.483Z,13.83
2019-03-27T13:01:47.088Z,14.40
2019-03-27T13:04:36.702Z,13.18
2019-03-27T13:07:25.862Z,12.50
2019-03-27T13:10:14.706Z,13.32
2019-03-27T13:13:04.467Z,11.57
2019-03-27T13:15:53.565Z,15.63
2019-03-27T13:18:42.992Z,13.43
2019-03-27T13:21:32.163Z,13.53
2019-03-27T13:24:21.483Z,13.10
2019-03-27T13:27:11.007Z,12.13
2019-03-27T13:30:00.640Z,15.98
2019-03-27T13:32:50.339Z,16.15
2019-03-27T13:35:39.702Z,13.28
2019-03-27T13:38:29.145Z,12.63
2019-03-27T13:41:18.963Z,13.08
2019-03-27T13:44:08.610Z,16.57
2019-03-27T13:46:58.125Z,12.93
2019-03-27T13:49:47.761Z,14.70
2019-03-27T13:52:37.402Z,14.28
2019-03-27T13:55:26.616Z,12.63
2019-03-27T13:58:15.690Z,11.10
2019-03-27T14:01:08.644Z,12.40
2019-03-27T14:03:56.128Z,16.93
2019-03-27T14:06:45.536Z,13.75
2019-03-27T14:09:34.885Z,13.63
2019-03-27T14:12:24.632Z,12.15
2019-03-27T14:15:14.685Z,12.37
2019-03-27T14:18:04.693Z,12.50
2019-03-27T14:20:53.927Z,11.97
2019-03-27T14:23:43.529Z,12.27
2019-03-27T14:26:44.409Z,10.48
2019-03-27T14:29:23.524Z,10.88
2019-03-27T14:32:12.989Z,10.32
2019-03-27T14:35:02.494Z,12.15
2019-03-27T14:37:51.417Z,11.60
2019-03-27T14:40:41.369Z,11.65
2019-03-27T14:43:30.678Z,10.35
2019-03-27T14:46:19.959Z,11.40
2019-03-27T14:49:09.290Z,13.55
2019-03-27T14:52:08.095Z,13.70
2019-03-27T14:54:49.235Z,9.95
2019-03-27T14:57:39.176Z,11.48
2019-03-27T15:00:28.644Z,10.43
2019-03-27T15:03:18.558Z,9.93
2019-03-27T15:06:07.709Z,12.23
2019-03-27T15:08:57.114Z,13.93
2019-03-27T15:11:46.757Z,14.70
2019-03-27T15:14:36.210Z,11.55
2019-03-27T15:17:25.465Z,11.43
2019-03-27T15:20:15.486Z,9.33
2019-03-27T15:23:04.909Z,12.87
2019-03-27T15:25:53.978Z,10.82
2019-03-27T15:28:43.576Z,10.58
2019-03-27T15:31:33.007Z,12.75
2019-03-27T15:34:22.424Z,10.05
2019-03-27T15:37:12.233Z,13.10
2019-03-27T15:40:01.935Z,11.65
2019-03-27T15:42:51.689Z,11.10
2019-03-27T15:45:41.653Z,9.55
2019-03-27T15:48:30.396Z,9.80
2019-03-27T15:51:19.711Z,11.25
2019-03-27T15:54:09.385Z,10.30
2019-03-27T15:56:58.922Z,11.15
2019-03-27T15:59:48.316Z,10.03
2019-03-27T16:02:37.804Z,11.85
2019-03-27T16:05:27.402Z,9.80
2019-03-27T16:08:16.688Z,9.27
2019-03-27T16:11:06.312Z,10.18
2019-03-27T16:13:55.958Z,10.28
2019-03-27T16:16:57.878Z,8.33
2019-03-27T16:19:36.371Z,6.80
2019-03-27T16:22:25.655Z,10.48
2019-03-27T16:25:15.161Z,9.95
2019-03-27T16:28:04.083Z,8.15
2019-03-27T16:30:55.532Z,12.60
2019-03-27T16:33:44.227Z,6.92
2019-03-27T16:36:34.089Z,7.40
2019-03-27T16:39:23.863Z,8.73
2019-03-27T16:42:12.941Z,8.60
2019-03-27T16:45:02.718Z,9.95
2019-03-27T16:47:51.505Z,16.67
2019-03-27T16:50:40.988Z,16.00
2019-03-27T16:53:30.188Z,13.23
2019-03-27T16:56:19.570Z,15.98
2019-03-27T16:59:09.292Z,11.83
2019-03-27T17:01:58.488Z,12.58
2019-03-27T17:04:48.311Z,10.10
2019-03-27T17:07:37.558Z,10.75
2019-03-27T17:10:26.930Z,11.57
2019-03-27T17:13:16.685Z,9.90
2019-03-27T17:16:06.530Z,8.23
2019-03-27T17:18:55.459Z,9.78
2019-03-27T17:21:45.164Z,10.18
2019-03-27T17:24:34.922Z,17.47
2019-03-27T17:27:24.837Z,14.95
2019-03-27T17:30:14.759Z,16.07
2019-03-27T17:33:04.542Z,13.98
2019-03-27T17:35:54.082Z,18.90
2019-03-27T17:38:43.290Z,17.57
2019-03-27T17:41:32.782Z,16.50
2019-03-27T17:44:22.222Z,20.10
2019-03-27T17:47:13.250Z,17.85
2019-03-27T17:50:02.547Z,15.10
2019-03-27T17:52:52.268Z,20.43
2019-03-27T17:55:41.641Z,17.45
2019-03-27T17:58:31.351Z,21.57
2019-03-27T18:01:21.186Z,20.05
2019-03-27T18:04:11.160Z,23.52
2019-03-27T18:07:01.269Z,19.73
2019-03-27T18:09:50.632Z,25.08
2019-03-27T18:12:40.605Z,18.95
2019-03-27T18:15:30.283Z,21.90
2019-03-27T18:18:21.087Z,20.25
2019-03-27T18:21:11.022Z,20.65
2019-03-27T18:24:00.798Z,23.65
2019-03-27T18:26:49.964Z,22.98
2019-03-27T18:29:39.880Z,19.05
2019-03-27T18:32:29.782Z,18.73
2019-03-27T18:35:19.411Z,15.13
2019-03-27T18:38:09.145Z,16.60
2019-03-27T18:40:58.551Z,17.00
2019-03-27T18:43:48.362Z,14.85
2019-03-27T18:46:38.280Z,18.82
2019-03-27T18:49:27.677Z,18.75
2019-03-27T18:52:17.276Z,21.00
2019-03-27T18:55:07.009Z,19.50
2019-03-27T18:58:00.336Z,21.05
2019-03-27T19:00:48.527Z,19.70
2019-03-27T19:03:38.183Z,25.00
2019-03-27T19:06:27.976Z,23.35
2019-03-27T19:09:16.947Z,20.43
2019-03-27T19:12:06.402Z,21.60
2019-03-27T19:14:56.323Z,21.30
2019-03-27T19:17:46.424Z,21.50
2019-03-27T19:20:35.883Z,21.80
2019-03-27T19:23:25.812Z,22.20
2019-03-27T19:26:14.921Z,21.77
2019-03-27T19:29:04.429Z,21.10
2019-03-27T19:31:53.978Z,22.48
2019-03-27T19:34:44.064Z,23.57
2019-03-27T19:37:33.617Z,22.70
2019-03-27T19:40:23.294Z,24.55
2019-03-27T19:43:12.826Z,21.45
2019-03-27T19:46:02.330Z,21.90
2019-03-27T19:48:51.387Z,23.32
2019-03-27T19:51:40.991Z,25.12
2019-03-27T19:54:31.782Z,26.42
2019-03-27T19:57:22.302Z,21.23
2019-03-27T20:00:12.797Z,22.77
2019-03-27T20:03:02.924Z,23.25
2019-03-27T20:05:51.952Z,23.18
2019-03-27T20:08:41.281Z,21.07
2019-03-27T20:11:30.074Z,22.30
2019-03-27T20:14:19.699Z,22.87
2019-03-27T20:17:10.045Z,23.65
2019-03-27T20:19:59.717Z,25.32
2019-03-27T20:22:49.481Z,23.35
2019-03-27T20:25:38.668Z,23.90
2019-03-27T20:28:28.090Z,24.70
2019-03-27T20:31:17.969Z,25.88
2019-03-27T20:34:07.907Z,22.70
2019-03-27T20:36:56.946Z,26.75
2019-03-27T20:39:46.838Z,20.75
2019-03-27T20:42:36.181Z,22.48
2019-03-27T20:45:25.869Z,21.57
2019-03-27T20:48:15.056Z,21.00
2019-03-27T20:51:04.644Z,23.12
2019-03-27T20:53:54.623Z,23.80
2019-03-27T20:56:47.287Z,20.95
2019-03-27T20:59:36.817Z,19.77
2019-03-27T21:02:26.254Z,27.13
2019-03-27T21:05:16.169Z,24.52
2019-03-27T21:08:05.980Z,25.47
2019-03-27T21:10:55.654Z,26.07
2019-03-27T21:13:45.484Z,22.00
2019-03-27T21:16:35.016Z,23.30
2019-03-27T21:19:24.542Z,22.87
2019-03-27T21:22:13.613Z,24.90
2019-03-27T21:25:09.110Z,23.73
2019-03-27T21:27:54.238Z,21.35
2019-03-27T21:30:43.607Z,20.27
2019-03-27T21:33:33.342Z,27.77
2019-03-27T21:36:22.763Z,20.32
2019-03-27T21:39:12.410Z,18.53
2019-03-27T21:42:01.584Z,20.00
2019-03-27T21:44:50.686Z,19.05
2019-03-27T21:47:40.226Z,24.12
2019-03-27T21:50:29.607Z,22.05
2019-03-27T21:53:19.364Z,22.80
2019-03-27T21:56:08.719Z,19.42
2019-03-27T21:59:02.371Z,19.40
2019-03-27T22:01:50.297Z,17.85
2019-03-27T22:04:39.947Z,16.17
2019-03-27T22:07:29.797Z,19.82
2019-03-27T22:10:19.192Z,20.75
2019-03-27T22:13:08.718Z,20.57
2019-03-27T22:15:58.438Z,20.57
2019-03-27T22:18:48.205Z,21.77
2019-03-27T22:21:37.564Z,23.70
2019-03-27T22:24:27.304Z,19.03
2019-03-27T22:27:16.582Z,18.37
2019-03-27T22:30:06.861Z,21.77
2019-03-27T22:32:56.670Z,18.55
2019-03-27T22:35:46.160Z,17.37
2019-03-27T22:38:35.780Z,18.90
2019-03-27T22:41:24.920Z,20.10
2019-03-27T22:44:14.102Z,21.30
2019-03-27T22:47:03.616Z,22.55
2019-03-27T22:49:52.579Z,23.10
2019-03-27T22:52:42.110Z,21.17
2019-03-27T22:55:31.555Z,24.95
2019-03-27T22:58:21.268Z,20.00
2019-03-27T23:01:10.986Z,21.97
2019-03-27T23:04:00.848Z,19.83
2019-03-27T23:06:50.324Z,20.90
2019-03-27T23:09:39.444Z,21.62
2019-03-27T23:12:28.754Z,23.62
2019-03-27T23:15:17.558Z,30.95
2019-03-27T23:18:07.151Z,42.08
2019-03-27T23:20:56.417Z,36.00
2019-03-27T23:23:45.787Z,26.30
2019-03-27T23:26:34.588Z,21.17
2019-03-27T23:29:23.731Z,21.17
2019-03-27T23:32:12.499Z,36.30
2019-03-27T23:35:02.141Z,25.03
2019-03-27T23:37:51.928Z,40.83
2019-03-27T23:40:40.972Z,73.22
2019-03-27T23:43:30.464Z,70.25
2019-03-27T23:46:19.744Z,43.00
2019-03-27T23:49:09.409Z,61.30
2019-03-27T23:51:58.963Z,59.15
2019-03-27T23:54:48.772Z,46.92
2019-03-27T23:57:38.390Z,38.95
